TimeMST,TemperatureF,Dew PointF,Humidity,Sea Level PressureIn,VisibilityMPH,Wind Direction,Wind SpeedMPH,Gust SpeedMPH,PrecipitationIn,Events,Conditions,WindDirDegrees,DateUTC
12:54 AM,7.0,1.0,77,30.04,10.0,ENE,3.5,-,N/A,,Clear,70,2013-02-22 07:54:00
1:54 AM,1.9,-2.9,80,30.06,10.0,ENE,4.6,-,N/A,,Clear,60,2013-02-22 08:54:00
2:54 AM,1.0,-5.1,75,30.08,10.0,Calm,Calm,-,N/A,,Clear,0,2013-02-22 09:54:00
3:54 AM,-0.9,-7.1,75,30.08,10.0,Calm,Calm,-,N/A,,Clear,0,2013-02-22 10:54:00
4:54 AM,-0.9,-6.0,79,30.10,10.0,NE,4.6,-,N/A,,Clear,50,2013-02-22 11:54:00
5:54 AM,-2.9,-9.0,75,30.14,10.0,Calm,Calm,-,N/A,,Clear,0,2013-02-22 12:54:00
6:54 AM,-4.0,-9.9,76,30.17,10.0,Calm,Calm,-,N/A,,Clear,0,2013-02-22 13:54:00
7:54 AM,-0.0,-2.9,88,30.15,10.0,Calm,Calm,-,N/A,,Clear,0,2013-02-22 14:54:00
8:54 AM,17.1,10.9,77,30.13,10.0,Calm,Calm,-,N/A,,Clear,0,2013-02-22 15:54:00
9:54 AM,26.1,8.1,47,30.09,10.0,Variable,4.6,-,N/A,,Clear,0,2013-02-22 16:54:00
10:54 AM,30.0,3.9,33,30.13,10.0,WNW,8.1,-,N/A,,Clear,300,2013-02-22 17:54:00
12:54 PM,34.0,8.1,34,30.13,10.0,Variable,5.8,-,N/A,,Clear,0,2013-02-22 19:54:00
1:54 PM,34.0,10.0,37,30.12,10.0,West,8.1,-,N/A,,Clear,260,2013-02-22 20:54:00
2:54 PM,35.1,10.0,35,30.12,10.0,Variable,5.8,16.1,N/A,,Clear,0,2013-02-22 21:54:00
3:54 PM,35.1,10.0,35,30.13,10.0,NNW,11.5,16.1,N/A,,Clear,330,2013-02-22 22:54:00
4:54 PM,34.0,8.1,34,30.16,10.0,NNW,10.4,-,N/A,,Clear,330,2013-02-22 23:54:00
5:54 PM,32.0,9.0,38,30.19,10.0,WNW,6.9,-,N/A,,Clear,300,2013-02-23 00:54:00
6:54 PM,28.9,10.9,47,30.24,10.0,WSW,3.5,-,N/A,,Clear,250,2013-02-23 01:54:00
7:54 PM,26.1,12.0,55,30.25,10.0,SSE,3.5,-,N/A,,Clear,160,2013-02-23 02:54:00
8:54 PM,21.0,14.0,74,30.21,10.0,West,5.8,-,N/A,,Clear,270,2013-02-23 03:54:00
9:54 PM,19.9,12.9,74,30.19,10.0,Calm,Calm,-,N/A,,Clear,0,2013-02-23 04:54:00
10:54 PM,19.9,12.9,74,30.17,10.0,Calm,Calm,-,N/A,,Clear,0,2013-02-23 05:54:00
11:54 PM,18.0,12.0,78,30.16,10.0,Calm,Calm,-,N/A,,Clear,0,2013-02-23 06:54:00